createdAt,value
2023-02-05T00:00:56.638Z,1.46
2023-02-05T00:05:59.332Z,1.54
2023-02-05T00:11:07.582Z,1.62
2023-02-05T00:16:13.797Z,1.53
2023-02-05T00:21:18.731Z,1.48
2023-02-05T00:26:21.857Z,1.56
2023-02-05T00:31:26.737Z,1.58
2023-02-05T00:36:29.564Z,1.63
2023-02-05T00:41:32.342Z,1.71
2023-02-05T00:46:37.015Z,1.76
2023-02-05T00:51:39.704Z,1.82
2023-02-05T00:56:42.543Z,1.84
2023-02-05T01:01:47.096Z,1.86
2023-02-05T01:06:49.912Z,1.91
2023-02-05T01:11:53.012Z,1.94
2023-02-05T01:16:57.160Z,2.00
2023-02-05T01:21:59.873Z,2.05
2023-02-05T01:27:02.658Z,2.11
2023-02-05T01:32:06.940Z,2.15
2023-02-05T01:37:09.734Z,2.23
2023-02-05T01:42:19.044Z,2.25
2023-02-05T01:47:23.212Z,2.30
2023-02-05T01:52:26.380Z,2.34
2023-02-05T01:57:29.524Z,2.42
2023-02-05T02:02:35.700Z,2.44
2023-02-05T02:07:38.569Z,2.48
2023-02-05T02:12:44.994Z,2.52
2023-02-05T02:17:54.024Z,2.57
2023-02-05T02:23:10.048Z,2.58
2023-02-05T02:28:19.933Z,2.51
2023-02-05T02:33:28.474Z,2.59
2023-02-05T02:38:34.784Z,2.66
2023-02-05T02:43:47.988Z,2.68
2023-02-05T02:48:53.887Z,2.71
2023-02-05T02:53:58.951Z,2.75
2023-02-05T02:59:07.265Z,2.71
2023-02-05T03:04:15.930Z,2.75
2023-02-05T03:09:26.085Z,2.77
2023-02-05T03:14:30.309Z,2.76
2023-02-05T03:19:34.836Z,2.78
2023-02-05T03:24:38.027Z,2.81
2023-02-05T03:29:45.461Z,2.83
2023-02-05T03:35:02.417Z,2.86
2023-02-05T03:40:14.952Z,2.80
2023-02-05T03:45:44.485Z,2.74
2023-02-05T03:50:54.046Z,2.66
2023-02-05T03:56:06.512Z,2.69
2023-02-05T04:01:12.571Z,2.73
2023-02-05T04:06:17.230Z,2.71
2023-02-05T04:11:22.991Z,2.58
2023-02-05T04:16:28.480Z,2.54
2023-02-05T04:21:32.547Z,2.55
2023-02-05T04:26:35.983Z,2.54
2023-02-05T04:31:43.086Z,2.57
2023-02-05T04:36:48.519Z,2.63
2023-02-05T04:41:51.878Z,2.54
2023-02-05T04:46:55.925Z,2.56
2023-02-05T04:51:58.661Z,2.61
2023-02-05T04:57:01.426Z,2.65
2023-02-05T05:02:05.775Z,2.69
2023-02-05T05:07:09.414Z,2.72
2023-02-05T05:12:12.156Z,2.75
2023-02-05T05:17:16.326Z,2.74
2023-02-05T05:22:19.440Z,2.79
2023-02-05T05:27:23.175Z,2.83
2023-02-05T05:32:27.277Z,2.86
2023-02-05T05:37:29.998Z,2.84
2023-02-05T05:42:50.440Z,2.86
2023-02-05T05:47:54.725Z,2.87
2023-02-05T05:52:57.424Z,2.92
2023-02-05T05:58:00.148Z,2.88
2023-02-05T06:03:04.937Z,2.91
2023-02-05T06:08:08.172Z,2.89
2023-02-05T06:13:11.137Z,2.89
2023-02-05T06:18:15.527Z,2.86
2023-02-05T06:23:18.449Z,2.86
2023-02-05T06:28:21.228Z,2.77
2023-02-05T06:33:25.333Z,2.69
2023-02-05T06:38:28.042Z,2.79
2023-02-05T06:43:30.781Z,2.77
2023-02-05T06:48:34.888Z,2.70
2023-02-05T06:53:37.747Z,2.75
2023-02-05T06:58:40.510Z,2.76
2023-02-05T07:03:44.625Z,2.77
2023-02-05T07:08:47.818Z,2.70
2023-02-05T07:13:50.687Z,2.65
2023-02-05T07:18:54.895Z,2.72
2023-02-05T07:23:57.732Z,2.72
2023-02-05T07:29:00.581Z,2.66
2023-02-05T07:34:04.938Z,2.74
2023-02-05T07:39:07.770Z,2.72
2023-02-05T07:44:10.495Z,2.73
2023-02-05T07:49:14.533Z,2.81
2023-02-05T07:54:17.277Z,2.86
2023-02-05T07:59:20.136Z,2.88
2023-02-05T08:04:24.307Z,2.93
2023-02-05T08:09:27.125Z,3.01
2023-02-05T08:14:31.180Z,3.05
2023-02-05T08:19:35.512Z,3.01
2023-02-05T08:24:38.349Z,3.08
2023-02-05T08:29:41.116Z,3.24
2023-02-05T08:34:45.257Z,3.35
2023-02-05T08:39:49.418Z,3.27
2023-02-05T08:44:52.686Z,3.29
2023-02-05T08:49:56.845Z,3.31
2023-02-05T08:54:59.714Z,3.43
2023-02-05T09:00:03.519Z,3.45
2023-02-05T09:05:09.968Z,3.46
2023-02-05T09:10:13.942Z,3.59
2023-02-05T09:15:16.708Z,3.73
2023-02-05T09:20:21.027Z,3.80
2023-02-05T09:25:23.898Z,3.88
2023-02-05T09:30:26.656Z,3.94
2023-02-05T09:35:32.453Z,3.93
2023-02-05T09:40:40.236Z,4.00
2023-02-05T09:45:54.263Z,4.13
2023-02-05T09:50:59.490Z,4.22
2023-02-05T09:56:04.597Z,4.29
2023-02-05T10:01:13.525Z,4.31
2023-02-05T10:06:41.864Z,4.41
2023-02-05T10:11:51.647Z,4.47
2023-02-05T10:17:08.705Z,4.53
2023-02-05T10:22:20.036Z,4.56
2023-02-05T10:27:24.970Z,4.54
2023-02-05T10:32:39.983Z,4.55
2023-02-05T10:37:47.916Z,4.55
2023-02-05T10:42:55.254Z,4.68
2023-02-05T10:48:06.811Z,4.85
2023-02-05T10:53:10.940Z,5.10
2023-02-05T10:58:29.790Z,5.19
2023-02-05T11:03:33.045Z,5.24
2023-02-05T11:08:43.725Z,5.25
2023-02-05T11:13:52.499Z,5.29
2023-02-05T11:19:01.474Z,5.30
2023-02-05T11:24:06.876Z,5.40
2023-02-05T11:29:20.814Z,5.43
2023-02-05T11:34:23.724Z,5.63
2023-02-05T11:39:36.033Z,5.58
2023-02-05T11:44:48.332Z,5.52
2023-02-05T11:49:52.297Z,5.49
2023-02-05T11:54:57.295Z,5.62
2023-02-05T12:00:02.217Z,5.74
2023-02-05T12:05:19.780Z,5.85
2023-02-05T12:10:32.245Z,5.86
2023-02-05T12:15:42.649Z,5.87
2023-02-05T12:20:52.763Z,5.89
2023-02-05T12:26:09.618Z,5.88
2023-02-05T12:31:24.906Z,5.93
2023-02-05T12:36:45.380Z,6.22
2023-02-05T12:41:59.095Z,6.55
2023-02-05T12:47:15.121Z,6.88
2023-02-05T12:52:30.168Z,7.04
2023-02-05T12:57:41.832Z,7.18
2023-02-05T13:02:53.892Z,7.61
2023-02-05T13:08:02.329Z,7.50
2023-02-05T13:13:12.484Z,7.16
2023-02-05T13:18:21.677Z,7.27
2023-02-05T13:23:42.840Z,7.14
2023-02-05T13:28:48.891Z,7.16
2023-02-05T13:33:52.801Z,6.87
2023-02-05T13:39:12.981Z,6.85
2023-02-05T13:44:49.824Z,6.86
2023-02-05T13:50:03.322Z,6.84
2023-02-05T13:55:27.775Z,6.80
2023-02-05T14:00:33.055Z,6.94
2023-02-05T14:05:39.395Z,6.94
2023-02-05T14:10:45.820Z,6.64
2023-02-05T14:15:50.615Z,6.54
2023-02-05T14:20:53.430Z,6.41
2023-02-05T14:26:11.887Z,6.27
2023-02-05T14:31:53.435Z,6.21
2023-02-05T14:36:57.994Z,6.14
2023-02-05T14:42:05.175Z,6.09
2023-02-05T14:47:10.354Z,6.11
2023-02-05T14:52:28.416Z,6.07
2023-02-05T14:57:41.437Z,5.99
2023-02-05T15:03:31.754Z,5.96
2023-02-05T15:08:44.622Z,5.89
2023-02-05T15:14:21.200Z,5.89
2023-02-05T15:19:24.161Z,5.93
2023-02-05T15:24:31.734Z,5.88
2023-02-05T15:29:41.522Z,5.81
2023-02-05T15:34:47.725Z,5.82
2023-02-05T15:39:55.323Z,5.77
2023-02-05T15:44:58.394Z,5.74
2023-02-05T15:50:02.341Z,5.71
2023-02-05T15:55:14.924Z,5.75
2023-02-05T16:00:23.478Z,5.70
2023-02-05T16:05:27.588Z,5.72
2023-02-05T16:10:34.300Z,5.66
2023-02-05T16:15:40.876Z,5.60
2023-02-05T16:20:48.145Z,5.61
2023-02-05T16:25:56.824Z,5.57
2023-02-05T16:31:01.412Z,5.56
2023-02-05T16:36:07.743Z,5.51
2023-02-05T16:41:23.448Z,5.50
2023-02-05T16:46:28.754Z,5.44
2023-02-05T16:51:56.502Z,5.39
2023-02-05T16:57:05.394Z,5.36
2023-02-05T17:02:23.336Z,5.31
2023-02-05T17:07:27.208Z,5.27
2023-02-05T17:12:47.553Z,5.23
2023-02-05T17:17:52.686Z,5.23
2023-02-05T17:23:11.944Z,5.23
2023-02-05T17:28:19.302Z,5.19
2023-02-05T17:33:24.942Z,5.18
2023-02-05T17:38:28.507Z,5.18
2023-02-05T17:43:32.584Z,5.20
2023-02-05T17:48:36.066Z,5.21
2023-02-05T17:53:38.968Z,5.21
2023-02-05T17:58:43.132Z,5.22
2023-02-05T18:03:46.544Z,5.23
2023-02-05T18:08:49.302Z,5.18
2023-02-05T18:13:53.776Z,5.14
2023-02-05T18:18:56.547Z,5.14
2023-02-05T18:23:59.321Z,5.06
2023-02-05T18:29:03.433Z,5.03
2023-02-05T18:34:06.529Z,5.01
2023-02-05T18:39:10.463Z,5.00
2023-02-05T18:44:16.005Z,4.96
2023-02-05T18:49:18.796Z,4.94
2023-02-05T18:54:21.543Z,4.92
2023-02-05T18:59:25.687Z,4.89
2023-02-05T19:04:32.900Z,4.85
2023-02-05T19:09:35.810Z,4.82
2023-02-05T19:14:40.337Z,4.82
2023-02-05T19:19:43.273Z,4.79
2023-02-05T19:24:46.209Z,4.72
2023-02-05T19:29:50.396Z,4.71
2023-02-05T19:34:54.809Z,4.70
2023-02-05T19:39:57.687Z,4.68
2023-02-05T19:45:01.830Z,4.65
2023-02-05T19:50:04.688Z,4.63
2023-02-05T19:55:08.448Z,4.63
2023-02-05T20:00:13.951Z,4.65
2023-02-05T20:05:16.786Z,4.63
2023-02-05T20:10:20.166Z,4.67
2023-02-05T20:15:24.617Z,4.65
2023-02-05T20:20:33.486Z,4.63
2023-02-05T20:25:36.433Z,4.65
2023-02-05T20:31:00.236Z,4.64
2023-02-05T20:36:07.676Z,4.62
2023-02-05T20:41:15.370Z,4.62
2023-02-05T20:46:19.656Z,4.61
2023-02-05T20:51:24.658Z,4.61
2023-02-05T20:56:30.788Z,4.62
2023-02-05T21:01:39.841Z,4.64
2023-02-05T21:06:42.794Z,4.64
2023-02-05T21:11:45.585Z,4.66
2023-02-05T21:16:49.717Z,4.69
2023-02-05T21:21:52.509Z,4.71
2023-02-05T21:26:56.721Z,4.74
2023-02-05T21:32:00.840Z,4.75
2023-02-05T21:37:03.616Z,4.75
2023-02-05T21:42:06.410Z,4.72
2023-02-05T21:47:10.449Z,4.74
2023-02-05T21:52:13.256Z,4.75
2023-02-05T21:57:16.056Z,4.77
2023-02-05T22:02:20.153Z,4.78
2023-02-05T22:07:22.911Z,4.80
2023-02-05T22:12:25.839Z,4.82
2023-02-05T22:17:29.933Z,4.82
2023-02-05T22:22:32.743Z,4.83
2023-02-05T22:27:35.586Z,4.82
2023-02-05T22:32:39.748Z,4.85
2023-02-05T22:37:42.473Z,4.80
2023-02-05T22:42:45.174Z,4.81
2023-02-05T22:47:49.253Z,4.83
2023-02-05T22:52:52.001Z,4.78
2023-02-05T22:57:54.778Z,4.76
2023-02-05T23:02:59.189Z,4.80
2023-02-05T23:08:02.316Z,4.80
2023-02-05T23:13:05.162Z,4.76
2023-02-05T23:18:09.267Z,4.77
2023-02-05T23:23:12.011Z,4.77
2023-02-05T23:28:14.796Z,4.76
2023-02-05T23:33:19.051Z,4.74
2023-02-05T23:38:24.961Z,4.71
2023-02-05T23:43:28.121Z,4.71
2023-02-05T23:48:32.431Z,4.65
2023-02-05T23:53:35.209Z,4.55
2023-02-05T23:58:37.981Z,4.60
